sensor_id;sensor_type;location;lat;lon;timestamp;temperature;humidity
12384;DHT22;6256;63.808;20.336;2022-12-07T00:02:20;-7.30;99.90
12384;DHT22;6256;63.808;20.336;2022-12-07T00:04:48;-7.40;99.90
12384;DHT22;6256;63.808;20.336;2022-12-07T00:07:13;-7.50;99.90
12384;DHT22;6256;63.808;20.336;2022-12-07T00:09:39;-7.50;99.90
12384;DHT22;6256;63.808;20.336;2022-12-07T00:12:07;-7.60;99.90
12384;DHT22;6256;63.808;20.336;2022-12-07T00:14:33;-7.50;99.90
12384;DHT22;6256;63.808;20.336;2022-12-07T00:16:59;-7.50;99.90
12384;DHT22;6256;63.808;20.336;2022-12-07T00:19:24;-7.50;99.90
12384;DHT22;6256;63.808;20.336;2022-12-07T00:21:50;-7.50;99.90
12384;DHT22;6256;63.808;20.336;2022-12-07T00:24:16;-7.50;99.90
12384;DHT22;6256;63.808;20.336;2022-12-07T00:26:43;-7.50;99.90
12384;DHT22;6256;63.808;20.336;2022-12-07T00:29:17;-7.60;99.90
12384;DHT22;6256;63.808;20.336;2022-12-07T00:31:43;-7.70;99.90
12384;DHT22;6256;63.808;20.336;2022-12-07T00:34:14;-7.80;99.90
12384;DHT22;6256;63.808;20.336;2022-12-07T00:36:40;-7.80;99.90
12384;DHT22;6256;63.808;20.336;2022-12-07T00:39:06;-7.80;99.90
12384;DHT22;6256;63.808;20.336;2022-12-07T00:41:31;-7.80;99.90
12384;DHT22;6256;63.808;20.336;2022-12-07T00:43:57;-7.80;99.90
12384;DHT22;6256;63.808;20.336;2022-12-07T00:46:24;-7.60;99.90
12384;DHT22;6256;63.808;20.336;2022-12-07T00:48:50;-7.60;99.90
12384;DHT22;6256;63.808;20.336;2022-12-07T00:51:18;-7.60;99.90
12384;DHT22;6256;63.808;20.336;2022-12-07T00:53:44;-7.70;99.90
12384;DHT22;6256;63.808;20.336;2022-12-07T00:56:12;-7.80;99.90
12384;DHT22;6256;63.808;20.336;2022-12-07T00:58:38;-7.80;99.90
12384;DHT22;6256;63.808;20.336;2022-12-07T01:01:05;-7.70;99.90
12384;DHT22;6256;63.808;20.336;2022-12-07T01:03:31;-7.70;99.90
12384;DHT22;6256;63.808;20.336;2022-12-07T01:05:57;-7.70;99.90
12384;DHT22;6256;63.808;20.336;2022-12-07T01:08:24;-7.80;99.90
12384;DHT22;6256;63.808;20.336;2022-12-07T01:11:01;-7.90;99.90
12384;DHT22;6256;63.808;20.336;2022-12-07T01:13:28;-7.90;99.90
12384;DHT22;6256;63.808;20.336;2022-12-07T01:15:57;-8.10;99.90
12384;DHT22;6256;63.808;20.336;2022-12-07T01:18:25;-8.10;99.90
12384;DHT22;6256;63.808;20.336;2022-12-07T01:21:12;-8.00;99.90
12384;DHT22;6256;63.808;20.336;2022-12-07T01:23:38;-8.00;99.90
12384;DHT22;6256;63.808;20.336;2022-12-07T01:26:06;-8.00;99.90
12384;DHT22;6256;63.808;20.336;2022-12-07T01:28:32;-8.00;99.90
12384;DHT22;6256;63.808;20.336;2022-12-07T01:31:19;-8.20;99.90
12384;DHT22;6256;63.808;20.336;2022-12-07T01:33:47;-8.30;99.90
12384;DHT22;6256;63.808;20.336;2022-12-07T01:36:25;-8.40;99.90
12384;DHT22;6256;63.808;20.336;2022-12-07T01:38:56;-8.50;99.90
12384;DHT22;6256;63.808;20.336;2022-12-07T01:41:24;-8.50;99.90
12384;DHT22;6256;63.808;20.336;2022-12-07T01:46:45;-8.70;99.90
12384;DHT22;6256;63.808;20.336;2022-12-07T01:49:47;-8.70;99.90
12384;DHT22;6256;63.808;20.336;2022-12-07T01:52:18;-8.80;99.90
12384;DHT22;6256;63.808;20.336;2022-12-07T01:54:47;-8.90;99.90
12384;DHT22;6256;63.808;20.336;2022-12-07T01:57:16;-8.80;99.90
12384;DHT22;6256;63.808;20.336;2022-12-07T01:59:43;-8.80;99.90
12384;DHT22;6256;63.808;20.336;2022-12-07T02:04:46;-8.90;99.90
12384;DHT22;6256;63.808;20.336;2022-12-07T02:07:12;-9.00;99.90
12384;DHT22;6256;63.808;20.336;2022-12-07T02:09:39;-9.10;99.90
12384;DHT22;6256;63.808;20.336;2022-12-07T02:12:04;-9.10;99.90
12384;DHT22;6256;63.808;20.336;2022-12-07T02:14:30;-9.10;99.90
12384;DHT22;6256;63.808;20.336;2022-12-07T02:17:05;-9.10;99.90
12384;DHT22;6256;63.808;20.336;2022-12-07T02:25:29;-9.00;99.90
12384;DHT22;6256;63.808;20.336;2022-12-07T02:28:05;-9.00;99.90
12384;DHT22;6256;63.808;20.336;2022-12-07T02:30:35;-9.00;99.90
12384;DHT22;6256;63.808;20.336;2022-12-07T02:34:12;-9.10;99.90
12384;DHT22;6256;63.808;20.336;2022-12-07T02:36:25;-9.10;99.90
12384;DHT22;6256;63.808;20.336;2022-12-07T02:39:14;-9.10;99.90
12384;DHT22;6256;63.808;20.336;2022-12-07T02:41:44;-9.10;99.90
12384;DHT22;6256;63.808;20.336;2022-12-07T02:44:14;-9.10;99.90
12384;DHT22;6256;63.808;20.336;2022-12-07T02:46:57;-9.20;99.90
12384;DHT22;6256;63.808;20.336;2022-12-07T02:49:26;-9.20;99.90
12384;DHT22;6256;63.808;20.336;2022-12-07T02:51:53;-9.30;99.90
12384;DHT22;6256;63.808;20.336;2022-12-07T02:54:20;-9.30;99.90
12384;DHT22;6256;63.808;20.336;2022-12-07T02:56:54;-9.40;99.90
12384;DHT22;6256;63.808;20.336;2022-12-07T02:59:33;-9.30;99.90
12384;DHT22;6256;63.808;20.336;2022-12-07T03:13:41;-9.50;99.90
12384;DHT22;6256;63.808;20.336;2022-12-07T03:16:21;-9.50;99.90
12384;DHT22;6256;63.808;20.336;2022-12-07T03:19:04;-9.60;99.90
12384;DHT22;6256;63.808;20.336;2022-12-07T03:21:40;-9.60;99.90
12384;DHT22;6256;63.808;20.336;2022-12-07T03:24:15;-9.60;99.90
12384;DHT22;6256;63.808;20.336;2022-12-07T03:27:10;-9.60;99.90
12384;DHT22;6256;63.808;20.336;2022-12-07T03:29:50;-9.60;99.90
12384;DHT22;6256;63.808;20.336;2022-12-07T03:32:37;-9.70;99.90
12384;DHT22;6256;63.808;20.336;2022-12-07T03:35:06;-9.60;99.90
12384;DHT22;6256;63.808;20.336;2022-12-07T03:38:05;-9.60;99.90
12384;DHT22;6256;63.808;20.336;2022-12-07T03:40:47;-9.60;99.90
12384;DHT22;6256;63.808;20.336;2022-12-07T03:43:18;-9.70;99.90
12384;DHT22;6256;63.808;20.336;2022-12-07T03:46:25;-9.80;99.90
12384;DHT22;6256;63.808;20.336;2022-12-07T03:51:33;-9.90;99.90
12384;DHT22;6256;63.808;20.336;2022-12-07T03:54:19;-10.00;99.90
12384;DHT22;6256;63.808;20.336;2022-12-07T03:56:47;-9.90;99.90
12384;DHT22;6256;63.808;20.336;2022-12-07T03:59:15;-9.90;99.90
12384;DHT22;6256;63.808;20.336;2022-12-07T04:01:52;-9.90;99.90
12384;DHT22;6256;63.808;20.336;2022-12-07T04:06:44;-10.00;99.90
12384;DHT22;6256;63.808;20.336;2022-12-07T04:09:09;-10.00;99.90
12384;DHT22;6256;63.808;20.336;2022-12-07T04:11:35;-10.10;99.90
12384;DHT22;6256;63.808;20.336;2022-12-07T04:14:01;-10.10;99.90
12384;DHT22;6256;63.808;20.336;2022-12-07T04:16:50;-10.10;99.90
12384;DHT22;6256;63.808;20.336;2022-12-07T04:19:17;-10.20;99.90
12384;DHT22;6256;63.808;20.336;2022-12-07T04:21:43;-10.30;99.90
12384;DHT22;6256;63.808;20.336;2022-12-07T04:24:09;-10.30;99.90
12384;DHT22;6256;63.808;20.336;2022-12-07T04:26:36;-10.30;99.90
12384;DHT22;6256;63.808;20.336;2022-12-07T04:29:02;-10.30;99.90
12384;DHT22;6256;63.808;20.336;2022-12-07T04:31:27;-10.30;99.90
12384;DHT22;6256;63.808;20.336;2022-12-07T04:33:53;-10.30;99.90
12384;DHT22;6256;63.808;20.336;2022-12-07T04:36:19;-10.40;99.90
12384;DHT22;6256;63.808;20.336;2022-12-07T04:38:46;-10.40;99.90
12384;DHT22;6256;63.808;20.336;2022-12-07T04:41:12;-10.50;99.90
12384;DHT22;6256;63.808;20.336;2022-12-07T04:43:38;-10.60;99.90
12384;DHT22;6256;63.808;20.336;2022-12-07T04:46:03;-10.60;99.90
12384;DHT22;6256;63.808;20.336;2022-12-07T04:48:29;-10.60;99.90
12384;DHT22;6256;63.808;20.336;2022-12-07T04:50:55;-10.50;99.90
12384;DHT22;6256;63.808;20.336;2022-12-07T04:53:21;-10.60;99.90
12384;DHT22;6256;63.808;20.336;2022-12-07T04:55:47;-10.60;99.90
12384;DHT22;6256;63.808;20.336;2022-12-07T04:58:13;-10.60;99.90
12384;DHT22;6256;63.808;20.336;2022-12-07T05:00:38;-10.70;99.90
12384;DHT22;6256;63.808;20.336;2022-12-07T05:03:04;-10.70;99.90
12384;DHT22;6256;63.808;20.336;2022-12-07T05:05:30;-10.70;99.90
12384;DHT22;6256;63.808;20.336;2022-12-07T05:07:55;-10.80;99.90
12384;DHT22;6256;63.808;20.336;2022-12-07T05:10:21;-10.80;99.90
12384;DHT22;6256;63.808;20.336;2022-12-07T05:12:47;-10.80;99.90
12384;DHT22;6256;63.808;20.336;2022-12-07T05:15:14;-10.80;99.90
12384;DHT22;6256;63.808;20.336;2022-12-07T05:17:40;-10.80;99.90
12384;DHT22;6256;63.808;20.336;2022-12-07T05:20:06;-10.90;99.90
12384;DHT22;6256;63.808;20.336;2022-12-07T05:22:32;-10.90;99.90
12384;DHT22;6256;63.808;20.336;2022-12-07T05:24:57;-10.90;99.90
12384;DHT22;6256;63.808;20.336;2022-12-07T05:27:23;-10.90;99.90
12384;DHT22;6256;63.808;20.336;2022-12-07T05:29:52;-10.90;99.90
12384;DHT22;6256;63.808;20.336;2022-12-07T05:32:18;-11.00;99.90
12384;DHT22;6256;63.808;20.336;2022-12-07T05:34:44;-11.00;99.90
12384;DHT22;6256;63.808;20.336;2022-12-07T05:37:09;-10.90;99.90
12384;DHT22;6256;63.808;20.336;2022-12-07T05:39:35;-11.00;99.90
12384;DHT22;6256;63.808;20.336;2022-12-07T05:42:03;-11.00;99.90
12384;DHT22;6256;63.808;20.336;2022-12-07T05:44:45;-11.10;99.90
12384;DHT22;6256;63.808;20.336;2022-12-07T05:47:14;-11.00;99.90
12384;DHT22;6256;63.808;20.336;2022-12-07T05:49:40;-10.90;99.90
12384;DHT22;6256;63.808;20.336;2022-12-07T05:52:07;-10.90;99.90
12384;DHT22;6256;63.808;20.336;2022-12-07T05:54:33;-11.00;99.90
12384;DHT22;6256;63.808;20.336;2022-12-07T05:56:59;-11.00;99.90
12384;DHT22;6256;63.808;20.336;2022-12-07T05:59:25;-11.10;99.90
12384;DHT22;6256;63.808;20.336;2022-12-07T06:01:58;-11.10;99.90
12384;DHT22;6256;63.808;20.336;2022-12-07T06:04:26;-11.10;99.90
12384;DHT22;6256;63.808;20.336;2022-12-07T06:06:52;-11.20;99.90
12384;DHT22;6256;63.808;20.336;2022-12-07T06:09:19;-11.20;99.90
12384;DHT22;6256;63.808;20.336;2022-12-07T06:11:46;-11.20;99.90
12384;DHT22;6256;63.808;20.336;2022-12-07T06:14:30;-11.20;99.90
12384;DHT22;6256;63.808;20.336;2022-12-07T06:16:56;-11.30;99.90
12384;DHT22;6256;63.808;20.336;2022-12-07T06:19:22;-11.30;99.90
12384;DHT22;6256;63.808;20.336;2022-12-07T06:21:48;-11.30;99.90
12384;DHT22;6256;63.808;20.336;2022-12-07T06:24:15;-11.30;99.90
12384;DHT22;6256;63.808;20.336;2022-12-07T06:26:41;-11.30;99.90
12384;DHT22;6256;63.808;20.336;2022-12-07T06:31:33;-11.30;99.90
12384;DHT22;6256;63.808;20.336;2022-12-07T06:34:00;-11.40;99.90
12384;DHT22;6256;63.808;20.336;2022-12-07T06:36:26;-11.40;99.90
12384;DHT22;6256;63.808;20.336;2022-12-07T06:43:44;-11.20;99.90
12384;DHT22;6256;63.808;20.336;2022-12-07T06:46:10;-11.10;99.90
12384;DHT22;6256;63.808;20.336;2022-12-07T06:48:35;-11.10;99.90
12384;DHT22;6256;63.808;20.336;2022-12-07T06:51:01;-11.00;99.90
12384;DHT22;6256;63.808;20.336;2022-12-07T06:53:27;-11.00;99.90
12384;DHT22;6256;63.808;20.336;2022-12-07T06:55:53;-11.00;99.90
12384;DHT22;6256;63.808;20.336;2022-12-07T06:58:18;-10.90;99.90
12384;DHT22;6256;63.808;20.336;2022-12-07T07:00:44;-10.90;99.90
12384;DHT22;6256;63.808;20.336;2022-12-07T07:03:11;-10.90;99.90
12384;DHT22;6256;63.808;20.336;2022-12-07T07:05:37;-10.90;99.90
12384;DHT22;6256;63.808;20.336;2022-12-07T07:08:03;-11.00;99.90
12384;DHT22;6256;63.808;20.336;2022-12-07T07:10:29;-11.10;99.90
12384;DHT22;6256;63.808;20.336;2022-12-07T07:12:55;-11.20;99.90
12384;DHT22;6256;63.808;20.336;2022-12-07T07:15:21;-11.20;99.90
12384;DHT22;6256;63.808;20.336;2022-12-07T07:17:46;-11.30;99.90
12384;DHT22;6256;63.808;20.336;2022-12-07T07:39:41;-11.30;99.90
12384;DHT22;6256;63.808;20.336;2022-12-07T07:42:07;-11.60;99.90
12384;DHT22;6256;63.808;20.336;2022-12-07T07:44:33;-11.60;99.90
12384;DHT22;6256;63.808;20.336;2022-12-07T07:46:59;-11.60;99.90
12384;DHT22;6256;63.808;20.336;2022-12-07T07:49:25;-11.60;99.90
12384;DHT22;6256;63.808;20.336;2022-12-07T07:51:51;-11.70;99.90
12384;DHT22;6256;63.808;20.336;2022-12-07T07:54:17;-11.60;99.90
12384;DHT22;6256;63.808;20.336;2022-12-07T07:56:42;-11.60;99.90
12384;DHT22;6256;63.808;20.336;2022-12-07T07:59:08;-11.60;99.90
12384;DHT22;6256;63.808;20.336;2022-12-07T08:01:34;-11.70;99.90
12384;DHT22;6256;63.808;20.336;2022-12-07T08:04:00;-11.70;99.90
12384;DHT22;6256;63.808;20.336;2022-12-07T08:06:26;-11.60;99.90
12384;DHT22;6256;63.808;20.336;2022-12-07T08:08:52;-11.60;99.90
12384;DHT22;6256;63.808;20.336;2022-12-07T08:11:18;-11.50;99.90
12384;DHT22;6256;63.808;20.336;2022-12-07T08:13:46;-11.40;99.90
12384;DHT22;6256;63.808;20.336;2022-12-07T08:16:14;-11.30;99.90
12384;DHT22;6256;63.808;20.336;2022-12-07T08:18:41;-11.20;99.90
12384;DHT22;6256;63.808;20.336;2022-12-07T08:21:09;-11.20;99.90
12384;DHT22;6256;63.808;20.336;2022-12-07T08:23:35;-11.20;99.90
12384;DHT22;6256;63.808;20.336;2022-12-07T08:26:03;-11.30;99.90
12384;DHT22;6256;63.808;20.336;2022-12-07T08:28:29;-11.30;99.90
12384;DHT22;6256;63.808;20.336;2022-12-07T08:31:03;-11.30;99.90
12384;DHT22;6256;63.808;20.336;2022-12-07T08:33:29;-11.30;99.90
12384;DHT22;6256;63.808;20.336;2022-12-07T08:36:07;-11.30;99.90
12384;DHT22;6256;63.808;20.336;2022-12-07T08:38:37;-11.40;99.90
12384;DHT22;6256;63.808;20.336;2022-12-07T08:41:03;-11.40;99.90
12384;DHT22;6256;63.808;20.336;2022-12-07T08:43:29;-11.30;99.90
12384;DHT22;6256;63.808;20.336;2022-12-07T08:48:39;-11.30;99.90
12384;DHT22;6256;63.808;20.336;2022-12-07T08:51:06;-11.30;99.90
12384;DHT22;6256;63.808;20.336;2022-12-07T08:53:33;-11.40;99.90
12384;DHT22;6256;63.808;20.336;2022-12-07T08:56:00;-11.40;99.90
12384;DHT22;6256;63.808;20.336;2022-12-07T08:58:26;-11.40;99.90
12384;DHT22;6256;63.808;20.336;2022-12-07T09:00:51;-11.30;99.90
12384;DHT22;6256;63.808;20.336;2022-12-07T09:03:17;-11.30;99.90
12384;DHT22;6256;63.808;20.336;2022-12-07T09:05:43;-11.30;99.90
12384;DHT22;6256;63.808;20.336;2022-12-07T09:08:09;-11.30;99.90
12384;DHT22;6256;63.808;20.336;2022-12-07T09:10:35;-11.40;99.90
12384;DHT22;6256;63.808;20.336;2022-12-07T09:13:00;-11.40;99.90
12384;DHT22;6256;63.808;20.336;2022-12-07T09:15:30;-11.40;99.90
12384;DHT22;6256;63.808;20.336;2022-12-07T09:17:57;-11.40;99.90
12384;DHT22;6256;63.808;20.336;2022-12-07T09:20:23;-11.40;99.90
12384;DHT22;6256;63.808;20.336;2022-12-07T09:22:48;-11.40;99.90
12384;DHT22;6256;63.808;20.336;2022-12-07T09:25:14;-11.40;99.90
12384;DHT22;6256;63.808;20.336;2022-12-07T09:27:41;-11.40;99.90
12384;DHT22;6256;63.808;20.336;2022-12-07T09:30:07;-11.40;99.90
12384;DHT22;6256;63.808;20.336;2022-12-07T09:32:33;-11.40;99.90
12384;DHT22;6256;63.808;20.336;2022-12-07T09:34:58;-11.30;99.90
12384;DHT22;6256;63.808;20.336;2022-12-07T09:37:24;-11.30;99.90
12384;DHT22;6256;63.808;20.336;2022-12-07T09:39:50;-11.30;99.90
12384;DHT22;6256;63.808;20.336;2022-12-07T09:42:39;-11.30;99.90
12384;DHT22;6256;63.808;20.336;2022-12-07T09:45:15;-11.30;99.90
12384;DHT22;6256;63.808;20.336;2022-12-07T09:47:42;-11.20;99.90
12384;DHT22;6256;63.808;20.336;2022-12-07T09:50:17;-11.20;99.90
12384;DHT22;6256;63.808;20.336;2022-12-07T09:52:45;-11.00;99.90
12384;DHT22;6256;63.808;20.336;2022-12-07T09:55:15;-11.00;99.90
12384;DHT22;6256;63.808;20.336;2022-12-07T09:57:42;-10.90;99.90
12384;DHT22;6256;63.808;20.336;2022-12-07T10:00:18;-10.80;99.90
12384;DHT22;6256;63.808;20.336;2022-12-07T10:05:16;-10.80;99.90
12384;DHT22;6256;63.808;20.336;2022-12-07T10:07:43;-10.80;99.90
12384;DHT22;6256;63.808;20.336;2022-12-07T10:10:15;-10.80;99.90
12384;DHT22;6256;63.808;20.336;2022-12-07T10:13:00;-10.80;99.90
12384;DHT22;6256;63.808;20.336;2022-12-07T10:23:42;-10.70;99.90
12384;DHT22;6256;63.808;20.336;2022-12-07T10:28:55;-10.70;99.90
12384;DHT22;6256;63.808;20.336;2022-12-07T10:31:23;-10.70;99.90
12384;DHT22;6256;63.808;20.336;2022-12-07T10:33:58;-10.60;99.90
12384;DHT22;6256;63.808;20.336;2022-12-07T10:36:37;-10.60;99.90
12384;DHT22;6256;63.808;20.336;2022-12-07T10:39:13;-10.60;99.90
12384;DHT22;6256;63.808;20.336;2022-12-07T10:41:56;-10.60;99.90
12384;DHT22;6256;63.808;20.336;2022-12-07T10:44:31;-10.50;99.90
12384;DHT22;6256;63.808;20.336;2022-12-07T10:46:59;-10.50;99.90
12384;DHT22;6256;63.808;20.336;2022-12-07T10:55:27;-10.50;99.90
12384;DHT22;6256;63.808;20.336;2022-12-07T11:00:43;-10.50;99.90
12384;DHT22;6256;63.808;20.336;2022-12-07T11:28:03;-10.60;99.90
12384;DHT22;6256;63.808;20.336;2022-12-07T11:33:29;-10.70;99.90
12384;DHT22;6256;63.808;20.336;2022-12-07T11:36:24;-10.70;99.90
12384;DHT22;6256;63.808;20.336;2022-12-07T11:39:02;-10.70;99.90
12384;DHT22;6256;63.808;20.336;2022-12-07T11:41:35;-10.70;99.90
12384;DHT22;6256;63.808;20.336;2022-12-07T11:46:50;-10.70;99.90
12384;DHT22;6256;63.808;20.336;2022-12-07T11:51:52;-10.80;99.90
12384;DHT22;6256;63.808;20.336;2022-12-07T11:54:34;-10.80;99.90
12384;DHT22;6256;63.808;20.336;2022-12-07T11:57:07;-10.80;99.90
12384;DHT22;6256;63.808;20.336;2022-12-07T11:59:45;-10.80;99.90
12384;DHT22;6256;63.808;20.336;2022-12-07T12:02:18;-10.80;99.90
12384;DHT22;6256;63.808;20.336;2022-12-07T12:05:05;-10.90;99.90
12384;DHT22;6256;63.808;20.336;2022-12-07T12:07:38;-10.90;99.90
12384;DHT22;6256;63.808;20.336;2022-12-07T12:10:14;-10.90;99.90
12384;DHT22;6256;63.808;20.336;2022-12-07T12:18:39;-10.90;99.90
12384;DHT22;6256;63.808;20.336;2022-12-07T12:21:10;-10.90;99.90
12384;DHT22;6256;63.808;20.336;2022-12-07T12:23:44;-11.00;99.90
12384;DHT22;6256;63.808;20.336;2022-12-07T12:26:32;-11.00;99.90
12384;DHT22;6256;63.808;20.336;2022-12-07T12:29:21;-11.00;99.90
12384;DHT22;6256;63.808;20.336;2022-12-07T12:32:05;-11.00;99.90
12384;DHT22;6256;63.808;20.336;2022-12-07T12:37:40;-11.10;99.90
12384;DHT22;6256;63.808;20.336;2022-12-07T12:42:49;-11.10;99.90
12384;DHT22;6256;63.808;20.336;2022-12-07T12:45:23;-11.10;99.90
12384;DHT22;6256;63.808;20.336;2022-12-07T13:00:44;-11.30;99.90
12384;DHT22;6256;63.808;20.336;2022-12-07T13:03:27;-11.40;99.90
12384;DHT22;6256;63.808;20.336;2022-12-07T13:06:20;-11.40;99.90
12384;DHT22;6256;63.808;20.336;2022-12-07T13:08:59;-11.40;99.90
12384;DHT22;6256;63.808;20.336;2022-12-07T13:11:41;-11.50;99.90
12384;DHT22;6256;63.808;20.336;2022-12-07T13:15:19;-11.50;99.90
12384;DHT22;6256;63.808;20.336;2022-12-07T13:20:05;-11.50;99.90
12384;DHT22;6256;63.808;20.336;2022-12-07T13:25:31;-11.60;99.90
12384;DHT22;6256;63.808;20.336;2022-12-07T13:28:11;-11.60;99.90
12384;DHT22;6256;63.808;20.336;2022-12-07T13:33:17;-11.70;99.90
12384;DHT22;6256;63.808;20.336;2022-12-07T13:35:44;-11.70;99.90
12384;DHT22;6256;63.808;20.336;2022-12-07T13:38:26;-11.70;99.90
12384;DHT22;6256;63.808;20.336;2022-12-07T13:41:15;-11.70;99.90
12384;DHT22;6256;63.808;20.336;2022-12-07T13:43:48;-11.80;99.90
12384;DHT22;6256;63.808;20.336;2022-12-07T13:46:15;-11.80;99.90
12384;DHT22;6256;63.808;20.336;2022-12-07T13:48:49;-11.90;99.90
12384;DHT22;6256;63.808;20.336;2022-12-07T13:53:53;-11.90;99.90
12384;DHT22;6256;63.808;20.336;2022-12-07T13:56:22;-12.00;99.90
12384;DHT22;6256;63.808;20.336;2022-12-07T13:58:48;-12.00;99.90
12384;DHT22;6256;63.808;20.336;2022-12-07T14:01:14;-11.90;99.90
12384;DHT22;6256;63.808;20.336;2022-12-07T14:03:40;-12.00;99.90
12384;DHT22;6256;63.808;20.336;2022-12-07T14:06:25;-12.00;99.90
12384;DHT22;6256;63.808;20.336;2022-12-07T14:09:27;-12.00;99.90
12384;DHT22;6256;63.808;20.336;2022-12-07T14:11:55;-12.00;99.90
12384;DHT22;6256;63.808;20.336;2022-12-07T14:14:26;-12.00;99.90
12384;DHT22;6256;63.808;20.336;2022-12-07T14:19:45;-12.00;99.90
12384;DHT22;6256;63.808;20.336;2022-12-07T14:22:37;-12.00;99.90
12384;DHT22;6256;63.808;20.336;2022-12-07T14:25:21;-12.00;99.90
12384;DHT22;6256;63.808;20.336;2022-12-07T14:27:52;-11.90;99.90
12384;DHT22;6256;63.808;20.336;2022-12-07T14:30:20;-11.90;99.90
12384;DHT22;6256;63.808;20.336;2022-12-07T14:32:49;-11.90;99.90
12384;DHT22;6256;63.808;20.336;2022-12-07T14:35:17;-11.90;99.90
12384;DHT22;6256;63.808;20.336;2022-12-07T14:37:46;-11.90;99.90
12384;DHT22;6256;63.808;20.336;2022-12-07T14:40:15;-11.90;99.90
12384;DHT22;6256;63.808;20.336;2022-12-07T14:42:44;-11.90;99.90
12384;DHT22;6256;63.808;20.336;2022-12-07T14:45:17;-11.90;99.90
12384;DHT22;6256;63.808;20.336;2022-12-07T14:47:44;-11.90;99.90
12384;DHT22;6256;63.808;20.336;2022-12-07T14:50:15;-11.90;99.90
12384;DHT22;6256;63.808;20.336;2022-12-07T14:52:43;-11.90;99.90
12384;DHT22;6256;63.808;20.336;2022-12-07T14:55:21;-11.80;99.90
12384;DHT22;6256;63.808;20.336;2022-12-07T14:57:48;-11.80;99.90
12384;DHT22;6256;63.808;20.336;2022-12-07T15:00:15;-11.80;99.90
12384;DHT22;6256;63.808;20.336;2022-12-07T15:02:43;-11.80;99.90
12384;DHT22;6256;63.808;20.336;2022-12-07T15:05:08;-11.80;99.90
12384;DHT22;6256;63.808;20.336;2022-12-07T15:07:34;-11.80;99.90
12384;DHT22;6256;63.808;20.336;2022-12-07T15:10:00;-11.80;99.90
12384;DHT22;6256;63.808;20.336;2022-12-07T15:12:25;-11.80;99.90
12384;DHT22;6256;63.808;20.336;2022-12-07T15:14:51;-11.80;99.90
12384;DHT22;6256;63.808;20.336;2022-12-07T15:17:17;-11.90;99.90
12384;DHT22;6256;63.808;20.336;2022-12-07T15:19:42;-11.90;99.90
12384;DHT22;6256;63.808;20.336;2022-12-07T15:22:08;-12.00;99.90
12384;DHT22;6256;63.808;20.336;2022-12-07T15:24:37;-12.00;99.90
12384;DHT22;6256;63.808;20.336;2022-12-07T15:27:03;-12.00;99.90
12384;DHT22;6256;63.808;20.336;2022-12-07T15:29:29;-12.00;99.90
12384;DHT22;6256;63.808;20.336;2022-12-07T15:31:55;-12.00;99.90
12384;DHT22;6256;63.808;20.336;2022-12-07T15:34:22;-12.00;99.90
12384;DHT22;6256;63.808;20.336;2022-12-07T15:36:48;-12.00;99.90
12384;DHT22;6256;63.808;20.336;2022-12-07T15:39:14;-12.10;99.90
12384;DHT22;6256;63.808;20.336;2022-12-07T15:41:40;-12.10;99.90
12384;DHT22;6256;63.808;20.336;2022-12-07T15:44:05;-12.10;99.90
12384;DHT22;6256;63.808;20.336;2022-12-07T15:46:50;-12.10;99.90
12384;DHT22;6256;63.808;20.336;2022-12-07T15:49:19;-12.10;99.90
12384;DHT22;6256;63.808;20.336;2022-12-07T15:51:45;-12.10;99.90
12384;DHT22;6256;63.808;20.336;2022-12-07T15:54:19;-12.10;99.90
12384;DHT22;6256;63.808;20.336;2022-12-07T15:56:48;-12.10;99.90
12384;DHT22;6256;63.808;20.336;2022-12-07T15:59:14;-12.10;99.90
12384;DHT22;6256;63.808;20.336;2022-12-07T16:01:40;-12.10;99.90
12384;DHT22;6256;63.808;20.336;2022-12-07T16:04:06;-12.20;99.90
12384;DHT22;6256;63.808;20.336;2022-12-07T16:06:31;-12.10;99.90
12384;DHT22;6256;63.808;20.336;2022-12-07T16:08:57;-12.10;99.90
12384;DHT22;6256;63.808;20.336;2022-12-07T16:11:23;-12.10;99.90
12384;DHT22;6256;63.808;20.336;2022-12-07T16:13:49;-12.10;99.90
12384;DHT22;6256;63.808;20.336;2022-12-07T16:16:16;-12.20;99.90
12384;DHT22;6256;63.808;20.336;2022-12-07T16:18:43;-12.20;99.90
12384;DHT22;6256;63.808;20.336;2022-12-07T16:23:35;-12.30;99.90
12384;DHT22;6256;63.808;20.336;2022-12-07T16:26:09;-12.40;99.90
12384;DHT22;6256;63.808;20.336;2022-12-07T16:28:35;-12.40;99.90
12384;DHT22;6256;63.808;20.336;2022-12-07T16:31:21;-12.50;99.90
12384;DHT22;6256;63.808;20.336;2022-12-07T16:33:48;-12.50;99.90
12384;DHT22;6256;63.808;20.336;2022-12-07T16:36:15;-12.50;99.90
12384;DHT22;6256;63.808;20.336;2022-12-07T16:38:42;-12.50;99.90
12384;DHT22;6256;63.808;20.336;2022-12-07T16:41:08;-12.50;99.90
12384;DHT22;6256;63.808;20.336;2022-12-07T16:43:35;-12.50;99.90
12384;DHT22;6256;63.808;20.336;2022-12-07T16:46:02;-12.50;99.90
12384;DHT22;6256;63.808;20.336;2022-12-07T16:48:28;-12.60;99.90
12384;DHT22;6256;63.808;20.336;2022-12-07T16:50:54;-12.60;99.90
12384;DHT22;6256;63.808;20.336;2022-12-07T16:53:21;-12.70;99.90
12384;DHT22;6256;63.808;20.336;2022-12-07T16:55:46;-12.70;99.90
12384;DHT22;6256;63.808;20.336;2022-12-07T16:58:13;-12.70;99.90
12384;DHT22;6256;63.808;20.336;2022-12-07T17:00:40;-12.80;99.90
12384;DHT22;6256;63.808;20.336;2022-12-07T17:03:06;-12.80;99.90
12384;DHT22;6256;63.808;20.336;2022-12-07T17:05:32;-12.80;99.90
12384;DHT22;6256;63.808;20.336;2022-12-07T17:07:58;-12.80;99.90
12384;DHT22;6256;63.808;20.336;2022-12-07T17:10:25;-12.80;99.90
12384;DHT22;6256;63.808;20.336;2022-12-07T17:12:51;-12.80;99.90
12384;DHT22;6256;63.808;20.336;2022-12-07T17:15:17;-12.80;99.90
12384;DHT22;6256;63.808;20.336;2022-12-07T17:17:47;-12.80;99.90
12384;DHT22;6256;63.808;20.336;2022-12-07T17:20:16;-12.80;99.90
12384;DHT22;6256;63.808;20.336;2022-12-07T17:22:43;-12.80;99.90
12384;DHT22;6256;63.808;20.336;2022-12-07T17:25:08;-12.80;99.90
12384;DHT22;6256;63.808;20.336;2022-12-07T17:27:35;-12.80;99.90
12384;DHT22;6256;63.808;20.336;2022-12-07T17:30:02;-12.80;99.90
12384;DHT22;6256;63.808;20.336;2022-12-07T17:32:28;-12.90;99.90
12384;DHT22;6256;63.808;20.336;2022-12-07T17:34:53;-12.90;99.90
12384;DHT22;6256;63.808;20.336;2022-12-07T17:37:19;-12.90;99.90
12384;DHT22;6256;63.808;20.336;2022-12-07T17:39:45;-12.90;99.90
12384;DHT22;6256;63.808;20.336;2022-12-07T17:42:14;-12.90;99.90
12384;DHT22;6256;63.808;20.336;2022-12-07T17:44:58;-12.90;99.90
12384;DHT22;6256;63.808;20.336;2022-12-07T17:47:24;-12.90;99.90
12384;DHT22;6256;63.808;20.336;2022-12-07T17:49:50;-12.90;99.90
12384;DHT22;6256;63.808;20.336;2022-12-07T17:52:18;-13.00;99.90
12384;DHT22;6256;63.808;20.336;2022-12-07T17:55:03;-13.00;99.90
12384;DHT22;6256;63.808;20.336;2022-12-07T17:57:29;-13.00;99.90
12384;DHT22;6256;63.808;20.336;2022-12-07T17:59:54;-13.00;99.90
12384;DHT22;6256;63.808;20.336;2022-12-07T18:02:20;-13.00;99.90
12384;DHT22;6256;63.808;20.336;2022-12-07T18:04:46;-13.00;99.90
12384;DHT22;6256;63.808;20.336;2022-12-07T18:07:12;-13.00;99.90
12384;DHT22;6256;63.808;20.336;2022-12-07T18:09:38;-13.00;99.90
12384;DHT22;6256;63.808;20.336;2022-12-07T18:12:04;-13.10;99.90